Naven, Sweden

10:04 AM CEST on April 28, 2015 (GMT +0200)
Husaby | | Change Station
CLOSE
Current Station
Personal Weather Station
Location: Husaby, VäSTRA GöTALANDS LäN
Elevation: 295 ft
Nearby Weather Stations

Elev 295 ft 58.53 °N, 13.38 °E | Updated 47 seconds ago

Scattered Clouds
Scattered Clouds
47.7 °F
Feels Like 46 °F
N
4.5
Wind Variable Wind from NNW
Gusts 6.9 mph

Today
High -- | Low -- °F
--% Chance of Precip.
Yesterday
High -- | Low -- °F
Precip. -- in
5:20 AM 8:50 PM
Waxing Gibbous, 72% visible
Pressure 29.77 in
Visibility 6.2 miles
Clouds Scattered Clouds 2000 ft
Windchill 46 °F
Dew Point 36 °F
Humidity 63%
Rainfall 0.00 in
Snow Depth Not available.
UV 3 out of 12
Pollen Not available.
Air Quality Not available.
Flu Activity Not available.
METAR ESIB 280750Z 29006KT 250V310 9999 SCT020 07/03 Q1008

More Conditions Fewer Conditions

Pressure 29.77 in
Visibility 6.2 miles
Clouds Scattered Clouds 2000 ft
Windchill 46 °F
Dew Point 36 °F
Humidity 63%
Rainfall 0.00 in
Snow Depth Not available.
UV 3 out of 12
Pollen Not available.
Air Quality Not available.
Flu Activity Not available.
METAR ESIB 280750Z 29006KT 250V310 9999 SCT020 07/03 Q1008

More Conditions Fewer Conditions

10-Day Weather Forecast

Almanac

Astronomy

Apr. 28, 2015 Rise Set
Actual Time
Civil Twilight
Nautical Twilight
Astronomical Twilight
Moon
Length of Visible Light
Length of Day
Tomorrow will be .
, % of the Moon is Illuminated

Today's Extremes

Country Highs Country Lows

Community

WunderPhotos

Upload Photos

1,817,597 photos uploaded!

WunderBlogs® & News

Nearby

Air Quality

  Air Quality AQ Index Pollutant
Not available.

Snow Depth

Station Depth Elevation

Earthquake Activity

City Distance Mag. Time & Date
Minimum magnitude displayed is 2.5.

Coastal Water Temperatures

Place Temperature

Stations

Nearby Weather Stations

Station Location Temp. Windchill Dew Point Humidity Wind Precip. Elev Updated Type